Time;durP1;ratioP1;P1;durP2;ratioP2;P2;SDS_P1;SDS_P2;PMS_P1;PMS_P2;Temp;Humidity;BMP_temperature;BMP_pressure;BME280_temperature;BME280_humidity;BME280_pressure;Samples;Min_cycle;Max_cycle;Signal;HPM_P1;HPM_P2
2022/03/07 00:01:39;;;;;;;16.10;9.60;;;1.60;99.90;;;;;;5008313;28;20196;-66
2022/03/07 00:04:05;;;;;;;12.57;9.17;;;1.40;99.90;;;;;;5005733;28;20195;-66
2022/03/07 00:06:31;;;;;;;13.73;8.97;;;1.50;99.90;;;;;;5002392;28;20211;-67
2022/03/07 00:08:57;;;;;;;13.97;9.30;;;1.30;99.90;;;;;;4995558;28;20566;-66
2022/03/07 00:11:23;;;;;;;14.97;9.87;;;1.20;99.90;;;;;;5009799;28;20683;-66
2022/03/07 00:13:51;;;;;;;16.30;9.80;;;1.20;99.90;;;;;;4992782;28;20208;-66
2022/03/07 00:16:17;;;;;;;14.73;10.03;;;1.10;99.90;;;;;;4976545;28;20535;-66
2022/03/07 00:18:43;;;;;;;15.50;10.37;;;1.20;99.90;;;;;;4994412;28;20196;-66
2022/03/07 00:21:09;;;;;;;16.40;10.63;;;1.10;99.90;;;;;;4994093;28;20272;-66
2022/03/07 00:23:35;;;;;;;13.03;9.10;;;1.10;99.90;;;;;;5007979;28;20711;-66
2022/03/07 00:26:00;;;;;;;14.40;9.67;;;1.10;99.90;;;;;;5003329;28;20218;-66
2022/03/07 00:28:26;;;;;;;16.67;9.43;;;1.30;99.90;;;;;;4998880;28;20196;-71
2022/03/07 00:30:52;;;;;;;14.07;9.47;;;1.30;99.90;;;;;;4999155;28;20188;-66
2022/03/07 00:33:18;;;;;;;16.17;10.13;;;1.20;99.90;;;;;;5001624;28;20191;-66
2022/03/07 00:35:44;;;;;;;16.70;10.40;;;1.30;99.90;;;;;;5014888;28;20218;-66
2022/03/07 00:38:10;;;;;;;15.87;8.73;;;1.20;99.90;;;;;;5010892;28;20652;-66
2022/03/07 00:40:36;;;;;;;14.77;10.00;;;1.10;99.90;;;;;;4998611;28;20199;-66
2022/03/07 00:43:05;;;;;;;14.97;8.93;;;1.10;99.90;;;;;;5000777;28;20199;-66
2022/03/07 00:45:31;;;;;;;19.60;10.80;;;1.20;99.90;;;;;;5000666;28;20218;-66
2022/03/07 00:47:56;;;;;;;14.53;9.20;;;1.20;99.90;;;;;;5000726;28;20199;-66
2022/03/07 00:50:22;;;;;;;15.53;9.83;;;1.00;99.90;;;;;;4999787;28;20275;-66
2022/03/07 00:52:48;;;;;;;14.77;9.83;;;0.90;99.90;;;;;;5004042;28;20222;-66
2022/03/07 00:55:13;;;;;;;16.00;10.00;;;0.90;99.90;;;;;;5003156;28;20196;-66
2022/03/07 00:57:39;;;;;;;13.47;10.10;;;1.00;99.90;;;;;;5000338;28;20199;-66
2022/03/07 01:00:06;;;;;;;12.90;9.40;;;0.90;99.90;;;;;;5005290;28;20643;-66
2022/03/07 01:02:32;;;;;;;13.13;10.77;;;0.80;99.90;;;;;;5013803;28;20611;-66
2022/03/07 01:05:00;;;;;;;12.57;10.03;;;0.70;99.90;;;;;;5000391;28;20188;-66
2022/03/07 01:07:27;;;;;;;11.60;9.87;;;0.80;99.90;;;;;;4997969;28;20314;-66
2022/03/07 01:09:53;;;;;;;14.23;10.57;;;0.70;99.90;;;;;;5009955;28;20188;-66
2022/03/07 01:12:19;;;;;;;14.23;10.13;;;0.80;99.90;;;;;;5014542;28;20552;-71
2022/03/07 01:14:45;;;;;;;15.93;9.97;;;0.80;99.90;;;;;;5000577;28;20199;-66
2022/03/07 01:17:10;;;;;;;14.77;10.83;;;0.80;99.90;;;;;;4999035;28;20218;-66
2022/03/07 01:19:36;;;;;;;13.87;8.87;;;0.80;99.90;;;;;;5000457;28;20275;-67
2022/03/07 01:22:05;;;;;;;16.13;11.03;;;0.90;99.90;;;;;;4999018;28;20199;-66
2022/03/07 01:24:31;;;;;;;14.63;11.07;;;0.80;99.90;;;;;;5016132;28;20564;-66
2022/03/07 01:26:57;;;;;;;13.43;9.40;;;0.70;99.90;;;;;;5000933;28;20208;-66
2022/03/07 01:29:23;;;;;;;15.03;10.13;;;0.60;99.90;;;;;;4999282;28;20191;-66
2022/03/07 01:31:49;;;;;;;18.10;10.50;;;0.60;99.90;;;;;;4999967;28;20211;-66
2022/03/07 01:34:14;;;;;;;20.10;10.83;;;0.60;99.90;;;;;;5008154;28;20192;-66
2022/03/07 01:36:41;;;;;;;23.30;11.50;;;0.60;99.90;;;;;;5012800;28;20644;-69
2022/03/07 01:39:07;;;;;;;16.43;10.67;;;0.60;99.90;;;;;;5008936;28;20679;-66
2022/03/07 01:41:32;;;;;;;18.53;10.77;;;0.60;99.90;;;;;;5006538;28;20192;-66
2022/03/07 01:43:58;;;;;;;15.47;11.00;;;0.60;99.90;;;;;;5003270;28;20191;-66
2022/03/07 01:46:24;;;;;;;21.10;11.60;;;0.50;99.90;;;;;;5007453;28;20319;-66
2022/03/07 01:48:50;;;;;;;17.53;10.90;;;0.50;99.90;;;;;;5003783;28;20195;-66
2022/03/07 01:51:17;;;;;;;14.63;10.57;;;0.50;99.90;;;;;;5010394;28;20204;-66
2022/03/07 01:53:42;;;;;;;15.73;10.17;;;0.50;99.90;;;;;;5004362;28;20636;-66
2022/03/07 01:56:08;;;;;;;18.77;12.03;;;0.70;99.90;;;;;;4992218;28;20199;-65
2022/03/07 01:58:34;;;;;;;15.77;10.50;;;0.70;99.90;;;;;;4996598;28;20255;-66
2022/03/07 02:01:01;;;;;;;17.30;10.97;;;0.60;99.90;;;;;;5001356;28;20546;-66
2022/03/07 02:03:26;;;;;;;15.17;11.10;;;0.60;99.90;;;;;;5011872;28;20191;-66
2022/03/07 02:05:53;;;;;;;18.07;10.93;;;0.70;99.90;;;;;;4997580;28;20207;-66
2022/03/07 02:08:19;;;;;;;16.17;8.90;;;0.70;99.90;;;;;;5013700;28;20301;-65
2022/03/07 02:10:47;;;;;;;17.93;10.60;;;0.60;99.90;;;;;;5014922;28;20218;-66
2022/03/07 02:13:17;;;;;;;15.97;10.73;;;0.50;99.90;;;;;;5012200;28;20540;-66
2022/03/07 02:15:43;;;;;;;16.00;9.70;;;0.40;99.90;;;;;;4996575;28;20195;-66
2022/03/07 02:18:09;;;;;;;17.83;10.27;;;0.30;99.90;;;;;;4996221;28;20210;-66
2022/03/07 02:20:35;;;;;;;15.70;11.27;;;0.30;99.90;;;;;;5005949;28;20246;-66
2022/03/07 02:23:02;;;;;;;15.77;10.70;;;0.40;99.90;;;;;;5013746;28;20298;-66
2022/03/07 02:25:27;;;;;;;13.80;10.50;;;0.30;99.90;;;;;;5013349;28;20241;-65
2022/03/07 02:27:53;;;;;;;15.70;9.90;;;0.40;99.90;;;;;;5005611;28;20246;-66
2022/03/07 02:30:19;;;;;;;13.70;9.77;;;0.20;99.90;;;;;;4996972;28;20195;-66
2022/03/07 02:32:44;;;;;;;19.73;10.13;;;0.20;99.90;;;;;;4999542;28;20598;-66
2022/03/07 02:35:12;;;;;;;17.63;10.87;;;0.30;99.90;;;;;;5005531;28;20187;-66
2022/03/07 02:37:38;;;;;;;19.90;10.67;;;0.20;99.90;;;;;;5013588;28;20230;-66
2022/03/07 02:40:04;;;;;;;18.33;10.20;;;0.20;99.90;;;;;;5006983;28;20668;-66
2022/03/07 02:42:30;;;;;;;17.87;11.93;;;0.20;99.90;;;;;;5008694;28;20716;-67
2022/03/07 02:44:55;;;;;;;19.90;12.77;;;0.10;99.90;;;;;;4994546;28;20196;-66
2022/03/07 02:47:23;;;;;;;13.67;10.60;;;0.10;99.90;;;;;;4995713;28;20202;-65
2022/03/07 02:49:52;;;;;;;17.73;11.03;;;0.20;99.90;;;;;;4994723;28;20191;-66
2022/03/07 02:52:17;;;;;;;15.40;10.53;;;0.30;99.90;;;;;;5009853;28;20222;-66
2022/03/07 02:54:43;;;;;;;13.00;9.53;;;0.20;99.90;;;;;;5007438;28;20229;-66
2022/03/07 02:57:09;;;;;;;19.37;11.43;;;0.10;99.90;;;;;;5010107;28;20655;-65
2022/03/07 02:59:38;;;;;;;16.93;11.17;;;0.40;99.90;;;;;;5009235;28;20206;-66
2022/03/07 03:02:04;;;;;;;20.10;11.47;;;0.20;99.90;;;;;;5010831;28;20650;-66
2022/03/07 03:04:29;;;;;;;18.30;11.03;;;0.10;99.90;;;;;;4994332;28;20230;-65
2022/03/07 03:06:55;;;;;;;17.77;11.00;;;0.00;99.90;;;;;;4993623;28;20597;-66
2022/03/07 03:09:20;;;;;;;19.50;11.17;;;0.10;99.90;;;;;;5010110;28;20576;-66
2022/03/07 03:11:46;;;;;;;16.53;11.27;;;0.00;99.90;;;;;;4995247;28;20276;-65
2022/03/07 03:14:12;;;;;;;14.30;10.80;;;0.00;99.90;;;;;;5008331;28;20187;-66
2022/03/07 03:16:40;;;;;;;13.20;10.27;;;0.10;99.90;;;;;;4993569;28;20314;-66
2022/03/07 03:19:06;;;;;;;15.33;9.43;;;0.10;99.90;;;;;;5011631;28;20191;-67
2022/03/07 03:21:31;;;;;;;13.97;10.47;;;0.10;99.90;;;;;;5014469;28;20190;-66
2022/03/07 03:23:57;;;;;;;19.30;10.90;;;0.00;99.90;;;;;;4998474;28;20203;-65
2022/03/07 03:26:23;;;;;;;18.53;11.47;;;0.00;99.90;;;;;;5003176;28;20214;-65
2022/03/07 03:28:49;;;;;;;19.93;11.23;;;0.10;99.90;;;;;;5012450;28;20210;-66
2022/03/07 03:31:17;;;;;;;15.53;10.70;;;0.10;99.90;;;;;;5012640;28;20253;-66
2022/03/07 03:33:43;;;;;;;19.57;10.90;;;0.00;99.90;;;;;;4997634;28;20206;-66
2022/03/07 03:36:08;;;;;;;15.30;10.73;;;0.10;99.90;;;;;;4994578;28;20198;-65
2022/03/07 03:38:34;;;;;;;15.37;10.87;;;0.00;99.90;;;;;;5004988;28;20201;-66
2022/03/07 03:41:00;;;;;;;17.03;11.53;;;-0.10;99.90;;;;;;5013740;28;20643;-66
2022/03/07 03:43:25;;;;;;;15.43;11.10;;;-0.10;99.90;;;;;;4995862;28;20191;-66
2022/03/07 03:45:51;;;;;;;18.53;10.90;;;-0.10;99.90;;;;;;5009119;28;20210;-66
2022/03/07 03:48:17;;;;;;;13.57;10.27;;;0.10;99.90;;;;;;4997378;28;20196;-65
2022/03/07 03:50:43;;;;;;;14.03;11.20;;;0.00;99.90;;;;;;5002046;28;20202;-65
2022/03/07 03:53:08;;;;;;;20.50;11.30;;;-0.10;99.90;;;;;;4995886;28;20198;-65
2022/03/07 03:55:34;;;;;;;16.50;10.63;;;-0.10;99.90;;;;;;5005012;28;20205;-69
2022/03/07 03:57:59;;;;;;;13.63;11.40;;;-0.10;99.90;;;;;;4998532;28;20197;-66
2022/03/07 04:00:27;;;;;;;20.27;11.07;;;-0.10;99.90;;;;;;5007493;28;20707;-66
2022/03/07 04:02:53;;;;;;;18.40;11.57;;;-0.20;99.90;;;;;;4996577;28;20206;-65
2022/03/07 04:05:19;;;;;;;17.20;12.20;;;-0.40;99.90;;;;;;5004765;28;20219;-69
2022/03/07 04:07:44;;;;;;;15.27;10.40;;;-0.40;99.90;;;;;;4994478;28;20237;-65
2022/03/07 04:10:13;;;;;;;18.63;11.00;;;-0.50;99.90;;;;;;4993299;28;20641;-66
2022/03/07 04:12:40;;;;;;;17.90;11.50;;;-0.50;99.90;;;;;;4993336;28;20199;-66
2022/03/07 04:15:07;;;;;;;18.33;11.97;;;-0.50;99.90;;;;;;5006011;28;20240;-66
2022/03/07 04:17:36;;;;;;;18.50;10.80;;;-0.40;99.90;;;;;;4994559;28;20254;-65
2022/03/07 04:20:02;;;;;;;19.33;11.50;;;-0.50;99.90;;;;;;5010306;28;20196;-65
2022/03/07 04:22:28;;;;;;;22.23;12.47;;;-0.50;99.90;;;;;;4999558;28;20291;-66
2022/03/07 04:24:53;;;;;;;17.67;12.37;;;-0.50;99.90;;;;;;5004309;28;20258;-66
2022/03/07 04:27:19;;;;;;;17.30;11.10;;;-0.30;99.90;;;;;;5011864;28;20234;-66
2022/03/07 04:29:45;;;;;;;18.10;11.23;;;-0.30;99.90;;;;;;5008097;28;20524;-65
2022/03/07 04:32:10;;;;;;;19.40;11.30;;;-0.50;99.90;;;;;;4994454;28;20195;-66
2022/03/07 04:34:36;;;;;;;15.23;10.70;;;-0.50;99.90;;;;;;4994085;28;20592;-66
2022/03/07 04:37:02;;;;;;;15.87;11.57;;;-0.50;99.90;;;;;;4994283;28;20194;-65
2022/03/07 04:39:28;;;;;;;20.30;12.33;;;-0.50;99.90;;;;;;5004593;28;20609;-66
2022/03/07 04:41:56;;;;;;;17.30;11.60;;;-0.50;99.90;;;;;;5002391;28;20198;-64
2022/03/07 04:44:22;;;;;;;19.57;12.03;;;-0.50;99.90;;;;;;5007846;28;20234;-65
2022/03/07 04:46:48;;;;;;;15.63;11.73;;;-0.60;99.90;;;;;;5009882;28;20214;-64
2022/03/07 04:49:13;;;;;;;20.17;12.43;;;-0.60;99.90;;;;;;4995291;28;20193;-64
2022/03/07 04:51:45;;;;;;;17.20;11.87;;;-0.60;99.90;;;;;;5013172;28;20177;-64
2022/03/07 04:54:11;;;;;;;17.63;12.53;;;-0.60;99.90;;;;;;5010426;28;20182;-64
2022/03/07 04:56:38;;;;;;;28.93;13.47;;;-0.60;99.90;;;;;;4992942;28;20211;-65
2022/03/07 04:59:03;;;;;;;23.77;12.67;;;-0.70;99.90;;;;;;4993830;28;20179;-68
2022/03/07 05:01:29;;;;;;;18.83;11.20;;;-0.70;99.90;;;;;;4994537;28;20200;-64
2022/03/07 05:03:55;;;;;;;18.60;11.87;;;-0.70;99.90;;;;;;4992639;28;20190;-64
2022/03/07 05:06:20;;;;;;;29.20;13.27;;;-0.80;99.90;;;;;;5008260;28;20381;-64
2022/03/07 05:08:46;;;;;;;18.50;12.47;;;-0.80;99.90;;;;;;4996275;28;20668;-64
2022/03/07 05:11:12;;;;;;;18.80;12.07;;;-0.80;99.90;;;;;;5009392;28;21576;-64
2022/03/07 05:13:37;;;;;;;19.23;11.97;;;-0.70;99.90;;;;;;4992313;28;20236;-64
2022/03/07 05:16:06;;;;;;;21.60;13.93;;;-0.70;99.90;;;;;;5011242;28;20229;-64
2022/03/07 05:18:32;;;;;;;17.77;11.23;;;-0.70;99.90;;;;;;5003301;28;20199;-64
2022/03/07 05:20:57;;;;;;;15.57;12.30;;;-0.70;99.90;;;;;;4996387;28;20197;-64
2022/03/07 05:23:26;;;;;;;21.37;13.83;;;-0.70;99.90;;;;;;4980173;28;20194;-64
2022/03/07 05:25:55;;;;;;;21.40;13.10;;;-0.80;99.90;;;;;;4979951;28;20222;-64
2022/03/07 05:28:21;;;;;;;22.60;12.67;;;-0.80;99.90;;;;;;4996685;28;20241;-64
2022/03/07 05:30:48;;;;;;;18.37;11.80;;;-0.80;99.90;;;;;;4997125;28;20262;-64
2022/03/07 05:33:13;;;;;;;21.50;12.40;;;-0.70;99.90;;;;;;4996467;28;20194;-64
2022/03/07 05:35:39;;;;;;;17.67;12.77;;;-0.80;99.90;;;;;;5008651;28;20201;-64
2022/03/07 05:38:05;;;;;;;19.90;12.10;;;-0.80;99.90;;;;;;5007650;28;20203;-64
2022/03/07 05:40:34;;;;;;;17.67;13.13;;;-0.90;99.90;;;;;;5011965;28;20195;-69
2022/03/07 05:43:00;;;;;;;22.13;14.40;;;-0.90;99.90;;;;;;4998935;28;20190;-66
2022/03/07 05:45:26;;;;;;;20.17;12.53;;;-0.90;99.90;;;;;;4997113;28;20223;-65
2022/03/07 05:47:51;;;;;;;18.53;12.57;;;-1.00;99.90;;;;;;4995986;28;20289;-65
2022/03/07 05:50:17;;;;;;;21.87;14.47;;;-0.90;99.90;;;;;;4997124;28;20197;-66
2022/03/07 05:52:46;;;;;;;22.10;13.83;;;-0.90;99.90;;;;;;4996539;28;20253;-66
2022/03/07 05:55:11;;;;;;;23.57;14.67;;;-0.90;99.90;;;;;;4996554;28;20659;-65
2022/03/07 05:57:37;;;;;;;24.50;14.30;;;-0.90;99.90;;;;;;4995804;28;20205;-65
2022/03/07 06:00:06;;;;;;;16.80;11.83;;;-0.90;99.90;;;;;;4996330;28;20260;-64
2022/03/07 06:02:32;;;;;;;23.00;14.60;;;-0.90;99.90;;;;;;5010627;28;20190;-65
2022/03/07 06:04:57;;;;;;;23.70;13.83;;;-0.90;99.90;;;;;;5007191;28;20248;-67
2022/03/07 06:07:23;;;;;;;24.57;13.17;;;-0.70;99.90;;;;;;4994715;28;20227;-66
2022/03/07 06:09:50;;;;;;;21.20;13.23;;;-0.90;99.90;;;;;;4996754;28;20208;-66
2022/03/07 06:12:15;;;;;;;21.73;14.07;;;-0.90;99.90;;;;;;4996667;28;20257;-66
2022/03/07 06:14:41;;;;;;;19.63;12.93;;;-0.90;99.90;;;;;;4996086;28;20226;-66
2022/03/07 06:17:07;;;;;;;18.87;13.10;;;-0.90;99.90;;;;;;5011871;28;20192;-66
2022/03/07 06:19:33;;;;;;;23.00;13.87;;;-0.80;99.90;;;;;;5015097;28;20662;-66
2022/03/07 06:21:59;;;;;;;26.07;15.47;;;-0.90;99.90;;;;;;5004487;28;20604;-66
2022/03/07 06:24:28;;;;;;;23.77;13.47;;;-1.00;99.90;;;;;;5013637;28;20284;-66
2022/03/07 06:26:55;;;;;;;25.27;14.47;;;-1.00;99.90;;;;;;4995708;28;20205;-66
2022/03/07 06:29:21;;;;;;;23.93;14.40;;;-1.00;99.90;;;;;;4994811;28;20205;-66
2022/03/07 06:31:46;;;;;;;26.73;13.73;;;-1.00;99.90;;;;;;4997051;28;20197;-65
2022/03/07 06:34:12;;;;;;;22.53;15.47;;;-1.00;99.90;;;;;;5015449;28;20193;-64
2022/03/07 06:36:39;;;;;;;24.63;14.60;;;-0.80;99.90;;;;;;4997638;28;20200;-64
2022/03/07 06:39:05;;;;;;;23.03;14.07;;;-0.60;99.90;;;;;;4994578;28;20194;-65
2022/03/07 06:41:31;;;;;;;20.03;14.00;;;-0.60;99.90;;;;;;4995916;28;20197;-66
2022/03/07 06:43:57;;;;;;;23.53;13.33;;;-0.70;99.90;;;;;;4994812;28;20673;-65
2022/03/07 06:46:22;;;;;;;26.30;16.10;;;-0.70;99.90;;;;;;5001572;28;20223;-65
2022/03/07 06:48:48;;;;;;;28.07;14.37;;;-0.70;99.90;;;;;;4995852;28;20666;-66
2022/03/07 06:51:14;;;;;;;25.50;15.67;;;-0.80;99.90;;;;;;4996003;28;20227;-65
2022/03/07 06:53:39;;;;;;;21.57;14.57;;;-0.80;99.90;;;;;;4996151;28;20248;-66
2022/03/07 06:56:05;;;;;;;27.53;15.47;;;-0.80;99.90;;;;;;4995706;28;20210;-67
2022/03/07 06:58:34;;;;;;;24.37;16.63;;;-0.80;99.90;;;;;;5010829;28;20197;-66
2022/03/07 07:01:00;;;;;;;26.90;15.73;;;-0.70;99.90;;;;;;5014358;28;20200;-66
2022/03/07 07:03:25;;;;;;;22.80;15.70;;;-0.70;99.90;;;;;;5009746;28;20194;-66
2022/03/07 07:05:54;;;;;;;31.63;16.03;;;-0.40;99.90;;;;;;5013751;28;20220;-66
2022/03/07 07:08:20;;;;;;;26.17;14.40;;;-0.20;99.90;;;;;;5006387;28;20300;-67
2022/03/07 07:10:45;;;;;;;25.87;14.30;;;-0.20;99.90;;;;;;5001388;28;20274;-66
2022/03/07 07:13:14;;;;;;;27.03;15.50;;;-0.30;99.90;;;;;;4995745;28;20194;-66
2022/03/07 07:15:41;;;;;;;22.37;15.27;;;-0.20;99.90;;;;;;4993449;28;20191;-67
2022/03/07 07:18:07;;;;;;;29.57;16.47;;;-0.30;99.90;;;;;;5003450;28;20635;-66
2022/03/07 07:20:32;;;;;;;25.77;16.00;;;-0.20;99.90;;;;;;5012876;28;20205;-66
2022/03/07 07:22:58;;;;;;;23.30;15.47;;;0.30;99.90;;;;;;4995896;28;20222;-66
2022/03/07 07:25:24;;;;;;;30.50;15.83;;;1.30;99.90;;;;;;4977664;28;20232;-66
2022/03/07 07:27:50;;;;;;;22.20;14.30;;;2.00;99.90;;;;;;4977754;28;20302;-68
2022/03/07 07:30:16;;;;;;;27.73;16.10;;;2.80;99.90;;;;;;4997932;28;20199;-66
2022/03/07 07:32:45;;;;;;;21.43;13.27;;;3.40;99.90;;;;;;5004382;28;20649;-67
2022/03/07 07:35:10;;;;;;;21.70;12.33;;;4.20;99.90;;;;;;4993268;28;20264;-69
2022/03/07 07:37:37;;;;;;;20.57;15.37;;;5.40;99.90;;;;;;5013554;28;20282;-66
2022/03/07 07:40:05;;;;;;;22.40;14.03;;;5.50;99.90;;;;;;5008306;28;20545;-66
2022/03/07 07:42:31;;;;;;;18.37;13.07;;;5.40;99.90;;;;;;5008531;28;20230;-66
2022/03/07 07:44:56;;;;;;;20.67;13.30;;;5.80;99.90;;;;;;5013320;28;20223;-66
2022/03/07 07:47:22;;;;;;;19.23;13.63;;;5.80;99.90;;;;;;5013124;28;20591;-66
2022/03/07 07:49:48;;;;;;;20.50;14.27;;;5.70;99.90;;;;;;5008981;28;20188;-66
2022/03/07 07:52:13;;;;;;;22.40;14.73;;;5.70;99.90;;;;;;4994779;28;20674;-66
2022/03/07 07:54:39;;;;;;;18.47;13.47;;;5.70;99.90;;;;;;5004965;28;20321;-67
2022/03/07 07:57:07;;;;;;;22.67;13.77;;;5.70;99.90;;;;;;4999670;28;20235;-65
2022/03/07 07:59:33;;;;;;;24.87;15.27;;;5.90;99.90;;;;;;5001245;28;20195;-65
2022/03/07 08:01:59;;;;;;;22.03;12.97;;;6.20;99.90;;;;;;5008696;28;20199;-65
2022/03/07 08:04:24;;;;;;;20.87;14.37;;;6.60;99.90;;;;;;4994457;28;20200;-69
2022/03/07 08:06:50;;;;;;;19.70;12.20;;;5.90;99.90;;;;;;4994705;28;20223;-65
2022/03/07 08:09:16;;;;;;;20.67;12.50;;;5.50;99.90;;;;;;4992467;28;20604;-66
2022/03/07 08:11:41;;;;;;;20.30;14.17;;;5.60;99.90;;;;;;4994238;28;20680;-65
2022/03/07 08:14:07;;;;;;;14.33;11.07;;;5.90;99.90;;;;;;5011092;28;20214;-64
2022/03/07 08:16:33;;;;;;;21.90;11.70;;;6.50;99.90;;;;;;4997249;28;20195;-64
2022/03/07 08:18:58;;;;;;;17.97;12.13;;;6.40;99.90;;;;;;4994654;28;20546;-64
2022/03/07 08:21:25;;;;;;;17.23;12.73;;;6.40;99.90;;;;;;4994170;28;20594;-64
2022/03/07 08:23:54;;;;;;;23.33;12.97;;;6.60;99.90;;;;;;4994633;28;20184;-65
2022/03/07 08:26:20;;;;;;;16.33;10.30;;;6.70;99.90;;;;;;4993852;28;20266;-64
2022/03/07 08:28:45;;;;;;;19.93;11.93;;;6.20;99.90;;;;;;4993048;28;20199;-65
2022/03/07 08:31:11;;;;;;;17.87;12.23;;;6.30;99.90;;;;;;4992810;28;20263;-65
2022/03/07 08:33:37;;;;;;;16.33;11.73;;;6.80;99.90;;;;;;4994508;28;20220;-65
2022/03/07 08:36:03;;;;;;;16.93;11.13;;;6.20;99.90;;;;;;4992731;28;20621;-65
2022/03/07 08:38:28;;;;;;;15.77;11.20;;;5.40;99.90;;;;;;5003172;28;20234;-64
2022/03/07 08:40:54;;;;;;;16.07;10.60;;;5.00;99.90;;;;;;4994068;28;20553;-65
2022/03/07 08:43:20;;;;;;;13.10;9.90;;;4.70;99.90;;;;;;4999082;28;20195;-65
2022/03/07 08:45:46;;;;;;;13.00;11.00;;;4.10;99.90;;;;;;5012954;28;20219;-65
2022/03/07 08:48:12;;;;;;;14.43;10.23;;;3.60;99.90;;;;;;5007690;28;20188;-65
2022/03/07 08:50:41;;;;;;;11.00;9.90;;;3.30;99.90;;;;;;5002671;28;20291;-65
2022/03/07 08:53:06;;;;;;;15.83;9.87;;;3.30;99.90;;;;;;5007793;28;20191;-65
2022/03/07 08:55:35;;;;;;;10.90;8.17;;;3.00;99.90;;;;;;4995932;28;20238;-65
2022/03/07 08:58:01;;;;;;;12.00;9.40;;;2.80;99.90;;;;;;5006032;28;20192;-65
2022/03/07 09:00:26;;;;;;;19.00;10.13;;;2.70;99.90;;;;;;5003495;28;20195;-65
2022/03/07 09:02:52;;;;;;;15.13;8.57;;;2.60;99.90;;;;;;4980704;28;20268;-65
2022/03/07 09:05:17;;;;;;;17.37;10.60;;;2.40;99.90;;;;;;4998056;28;20671;-65
2022/03/07 09:07:46;;;;;;;14.43;10.03;;;2.60;99.90;;;;;;4996955;28;20204;-66
2022/03/07 09:10:13;;;;;;;14.40;10.10;;;2.60;99.90;;;;;;4998106;28;20767;-65
2022/03/07 09:12:38;;;;;;;13.53;9.73;;;2.60;99.90;;;;;;4996953;28;20644;-65
2022/03/07 09:15:06;;;;;;;13.97;9.37;;;2.70;99.90;;;;;;4998395;28;20202;-65
2022/03/07 09:17:32;;;;;;;10.77;9.03;;;2.80;99.90;;;;;;5009750;28;20191;-66
2022/03/07 09:19:58;;;;;;;10.00;8.03;;;3.00;99.90;;;;;;5016663;28;20217;-65
2022/03/07 09:22:25;;;;;;;8.93;7.23;;;3.00;99.90;;;;;;5005759;28;20245;-65
2022/03/07 09:24:54;;;;;;;10.10;8.03;;;3.00;99.90;;;;;;5008026;28;20547;-66
2022/03/07 09:27:20;;;;;;;11.27;7.57;;;3.10;99.90;;;;;;4997319;28;20236;-66
2022/03/07 09:29:47;;;;;;;10.90;7.83;;;3.20;99.90;;;;;;5011172;28;20216;-66
2022/03/07 09:32:13;;;;;;;13.60;7.70;;;3.30;99.90;;;;;;4998083;28;20192;-66
2022/03/07 09:34:38;;;;;;;9.20;8.00;;;3.10;99.90;;;;;;4997131;28;20192;-66
2022/03/07 09:37:06;;;;;;;11.03;7.70;;;3.20;99.90;;;;;;5001663;28;20195;-66
2022/03/07 09:39:33;;;;;;;10.37;7.13;;;3.30;99.90;;;;;;4997150;28;20192;-66
2022/03/07 09:41:59;;;;;;;10.37;6.43;;;3.40;99.90;;;;;;4997703;28;20252;-66
2022/03/07 09:44:27;;;;;;;9.37;6.03;;;3.30;99.90;;;;;;4997095;28;20235;-65
2022/03/07 09:46:55;;;;;;;10.83;7.70;;;3.30;99.90;;;;;;4996547;28;20574;-66
2022/03/07 09:49:21;;;;;;;8.73;6.07;;;3.40;99.90;;;;;;4997572;28;20188;-66
2022/03/07 09:51:47;;;;;;;13.57;7.90;;;3.60;99.90;;;;;;5005410;28;20254;-66
2022/03/07 09:54:12;;;;;;;8.80;6.40;;;3.60;99.90;;;;;;5002979;28;20279;-66
2022/03/07 09:56:38;;;;;;;9.93;5.90;;;3.40;99.90;;;;;;4995937;28;20206;-66
2022/03/07 09:59:06;;;;;;;7.70;6.90;;;3.50;99.90;;;;;;4997605;28;20191;-67
2022/03/07 10:01:33;;;;;;;10.23;5.97;;;3.60;99.90;;;;;;4998275;28;20188;-67
2022/03/07 10:04:13;;;;;;;6.53;5.97;;;3.70;99.90;;;;;;5005697;28;20191;-68
2022/03/07 10:06:48;;;;;;;9.33;6.70;;;3.70;99.90;;;;;;5010666;28;20210;-67
2022/03/07 10:09:23;;;;;;;7.37;5.63;;;3.70;99.90;;;;;;5010424;28;20199;-68
2022/03/07 10:11:54;;;;;;;6.83;6.20;;;3.60;99.90;;;;;;5000166;28;20175;-67
2022/03/07 10:14:44;;;;;;;8.77;6.90;;;3.40;99.90;;;;;;5015034;28;20220;-67
2022/03/07 10:17:24;;;;;;;8.43;7.63;;;3.70;99.90;;;;;;4998715;28;20196;-67
2022/03/07 10:19:51;;;;;;;9.73;7.63;;;3.90;99.90;;;;;;5015358;28;20194;-68
2022/03/07 10:22:23;;;;;;;8.70;6.60;;;4.10;99.90;;;;;;5012325;28;20200;-67
2022/03/07 10:25:05;;;;;;;9.80;6.70;;;4.00;99.90;;;;;;5013845;28;20183;-67
2022/03/07 10:27:33;;;;;;;10.20;7.00;;;4.00;99.90;;;;;;5004568;28;20219;-67
2022/03/07 10:30:00;;;;;;;8.77;6.47;;;3.90;99.90;;;;;;4996349;28;20720;-67
2022/03/07 10:32:26;;;;;;;9.93;6.53;;;3.60;99.90;;;;;;5006638;28;20643;-67
2022/03/07 10:34:53;;;;;;;9.60;7.03;;;3.80;99.90;;;;;;4996534;28;20205;-67
2022/03/07 10:37:19;;;;;;;7.30;6.10;;;3.90;99.90;;;;;;4995946;28;20192;-67
2022/03/07 10:39:52;;;;;;;10.10;6.00;;;3.90;99.90;;;;;;5010115;28;20191;-67
2022/03/07 10:42:19;;;;;;;7.60;5.73;;;4.00;99.90;;;;;;5001265;28;20529;-67
2022/03/07 10:44:46;;;;;;;6.70;5.67;;;3.80;99.90;;;;;;5013484;28;20195;-68
2022/03/07 10:47:16;;;;;;;7.33;6.60;;;3.70;99.90;;;;;;5009368;28;20220;-68
2022/03/07 10:49:54;;;;;;;8.37;6.60;;;3.80;99.90;;;;;;4995926;28;20187;-67
2022/03/07 10:52:21;;;;;;;12.60;6.87;;;4.20;99.90;;;;;;5006546;28;20217;-68
2022/03/07 10:54:49;;;;;;;12.23;7.33;;;4.50;99.90;;;;;;4995564;28;20188;-68
2022/03/07 10:57:16;;;;;;;8.63;6.60;;;4.70;99.90;;;;;;5003613;28;20369;-70
2022/03/07 10:59:42;;;;;;;7.77;6.80;;;4.70;99.90;;;;;;5003179;28;20242;-67
2022/03/07 11:02:10;;;;;;;9.80;7.20;;;4.80;99.90;;;;;;5004864;28;20188;-67
2022/03/07 11:04:40;;;;;;;9.27;7.23;;;4.90;99.90;;;;;;4989092;28;20195;-71
2022/03/07 11:07:08;;;;;;;6.50;4.53;;;4.90;99.90;;;;;;4993625;28;20234;-67
2022/03/07 11:09:35;;;;;;;6.93;6.23;;;4.90;99.90;;;;;;5012448;28;20548;-67
2022/03/07 11:12:03;;;;;;;6.63;5.73;;;4.90;99.90;;;;;;5001261;28;20196;-67
2022/03/07 11:14:29;;;;;;;8.77;7.87;;;4.80;99.90;;;;;;5001231;28;20199;-67
2022/03/07 11:16:56;;;;;;;9.10;6.60;;;4.90;99.90;;;;;;5009745;28;20202;-67
2022/03/07 11:19:26;;;;;;;9.40;6.63;;;5.00;99.90;;;;;;5014291;28;20184;-68
2022/03/07 11:21:54;;;;;;;12.13;6.70;;;5.00;99.90;;;;;;4997494;28;20197;-67
2022/03/07 11:24:25;;;;;;;9.63;6.77;;;5.00;99.90;;;;;;4993894;28;20195;-67
2022/03/07 11:26:53;;;;;;;9.03;6.83;;;4.80;99.90;;;;;;4995240;28;20299;-68
2022/03/07 11:29:30;;;;;;;8.03;5.87;;;4.80;99.90;;;;;;4993892;28;20656;-68
2022/03/07 11:32:10;;;;;;;7.17;5.10;;;5.10;99.90;;;;;;4994279;28;20187;-68
2022/03/07 11:34:36;;;;;;;10.03;7.67;;;5.30;99.90;;;;;;4994684;28;20640;-67
2022/03/07 11:37:03;;;;;;;7.97;6.77;;;5.50;99.90;;;;;;4994687;28;20198;-68
2022/03/07 11:39:34;;;;;;;11.30;6.27;;;5.30;99.90;;;;;;5011564;28;20548;-67
2022/03/07 11:42:18;;;;;;;14.43;6.80;;;5.30;99.90;;;;;;5012472;28;20202;-67
2022/03/07 11:44:45;;;;;;;6.23;5.60;;;5.30;99.90;;;;;;5004487;28;20656;-68
2022/03/07 11:47:16;;;;;;;7.73;6.27;;;5.30;99.90;;;;;;4996048;28;20618;-68
2022/03/07 11:49:44;;;;;;;15.27;7.80;;;5.40;99.90;;;;;;5011575;28;20188;-67
2022/03/07 11:52:16;;;;;;;7.53;5.93;;;5.50;99.90;;;;;;4995079;28;20629;-68
2022/03/07 11:54:54;;;;;;;7.97;5.60;;;5.00;99.90;;;;;;4994366;28;20219;-68
2022/03/07 11:57:43;;;;;;;9.00;6.17;;;4.90;99.90;;;;;;4994655;28;20547;-67
2022/03/07 12:00:19;;;;;;;8.50;5.90;;;4.80;99.90;;;;;;4999010;28;20187;-68
2022/03/07 12:02:48;;;;;;;9.47;7.20;;;4.80;99.90;;;;;;5008440;28;20246;-68
2022/03/07 12:05:27;;;;;;;6.73;5.83;;;4.90;99.90;;;;;;4996531;28;20191;-68
2022/03/07 12:08:05;;;;;;;8.27;6.27;;;5.30;99.90;;;;;;5005174;28;20196;-68
2022/03/07 12:10:31;;;;;;;8.17;6.67;;;5.50;99.90;;;;;;5013778;28;20191;-67
2022/03/07 12:13:10;;;;;;;8.63;5.63;;;5.40;99.90;;;;;;5011336;28;20541;-68
2022/03/07 12:15:53;;;;;;;10.30;6.87;;;5.30;99.90;;;;;;4997895;28;20647;-69
2022/03/07 12:18:20;;;;;;;7.30;6.70;;;5.20;99.90;;;;;;5008675;28;20195;-68
2022/03/07 12:20:54;;;;;;;9.33;6.57;;;5.30;99.90;;;;;;4994430;28;20195;-68
2022/03/07 12:23:23;;;;;;;8.10;6.67;;;5.60;99.90;;;;;;5000420;28;20515;-68
2022/03/07 12:25:59;;;;;;;7.67;6.63;;;5.40;99.90;;;;;;4997565;28;20204;-68
2022/03/07 12:28:33;;;;;;;8.97;6.30;;;5.50;99.90;;;;;;4998981;28;20183;-67
2022/03/07 12:31:02;;;;;;;8.80;7.33;;;5.60;99.90;;;;;;5008479;28;20210;-67
2022/03/07 12:33:28;;;;;;;8.43;5.50;;;5.40;99.90;;;;;;5010811;28;20245;-68
2022/03/07 12:36:08;;;;;;;8.97;6.07;;;5.40;99.90;;;;;;5000421;28;20191;-68
2022/03/07 12:38:34;;;;;;;12.60;7.47;;;5.70;99.90;;;;;;5012773;28;20190;-68
2022/03/07 12:41:00;;;;;;;8.37;5.97;;;6.00;99.90;;;;;;5006827;28;20184;-68